Weather at Melbourne Heliport, Batman Park

Public forecast

Using degrees Celsius for public forecast. Weather courtesy of forecast.io.

Closest aviation weather report (METAR) to Melbourne Heliport, Batman Park

Closest report is Melbourne International Airport, 10.4 nm (19.4 km) NNW.

2024/07/20 15:30 (retrieved 25 minutes ago)

YMML 201530Z 30009KT 9999 BKN039 08/04 Q1015

Closest aviation forecast (TAF) to Melbourne Heliport, Batman Park

Closest forecast is Melbourne International Airport, 10.4 nm (19.4 km) NNW.

2024/07/20 15:58 (retrieved 0 seconds ago)

TAF YMML 201412Z 2015/2118 28012KT 9999 FEW040 FM201800 32010KT 9999 SCT030 FM210600 34015KT 9999 FEW040